createdAt,value
2022-11-15T00:36:25.438Z,41.00
2022-11-15T00:39:02.352Z,44.88
2022-11-15T00:44:07.851Z,45.42
2022-11-15T00:46:38.307Z,47.72
2022-11-15T00:49:13.050Z,45.30
2022-11-15T00:51:46.563Z,44.72
2022-11-15T00:54:28.171Z,44.13
2022-11-15T00:56:57.881Z,47.22
2022-11-15T00:59:36.516Z,47.28
2022-11-15T01:02:09.035Z,46.05
2022-11-15T01:04:38.747Z,55.10
2022-11-15T01:07:15.668Z,47.80
2022-11-15T01:09:50.927Z,52.60
2022-11-15T01:12:27.382Z,51.85
2022-11-15T01:14:56.035Z,49.20
2022-11-15T01:17:26.878Z,48.75
2022-11-15T01:19:57.847Z,54.78
2022-11-15T01:22:29.637Z,51.53
2022-11-15T01:24:59.907Z,50.50
2022-11-15T01:27:30.170Z,52.08
2022-11-15T01:30:01.648Z,55.95
2022-11-15T01:32:29.785Z,48.80
2022-11-15T01:34:57.213Z,57.13
2022-11-15T01:37:28.313Z,85.57
2022-11-15T01:39:59.715Z,104.50
2022-11-15T01:42:27.663Z,88.10
2022-11-15T01:44:56.611Z,136.95
2022-11-15T01:47:36.127Z,222.45
2022-11-15T01:50:16.348Z,317.13
2022-11-15T01:52:45.441Z,250.40
2022-11-15T01:55:29.490Z,272.05
2022-11-15T01:58:03.565Z,137.13
2022-11-15T02:00:34.465Z,279.75
2022-11-15T02:03:02.868Z,168.90
2022-11-15T02:05:32.723Z,104.38
2022-11-15T02:08:08.042Z,200.88
2022-11-15T02:10:38.265Z,204.77
2022-11-15T02:13:07.756Z,177.27
2022-11-15T02:16:07.379Z,105.63
2022-11-15T02:18:48.628Z,135.05
2022-11-15T02:21:50.916Z,116.28
2022-11-15T02:24:47.760Z,129.15
2022-11-15T02:27:41.343Z,171.85
2022-11-15T02:30:57.982Z,213.43
2022-11-15T02:37:44.295Z,132.45
2022-11-15T02:43:58.854Z,110.63
2022-11-15T02:46:58.543Z,134.25
2022-11-15T02:49:32.846Z,242.95
2022-11-15T02:52:08.095Z,230.93
2022-11-15T02:57:38.857Z,156.88
2022-11-15T03:10:41.262Z,54.05
2022-11-15T03:13:36.493Z,99.85
2022-11-15T03:16:10.284Z,105.57
2022-11-15T03:18:51.995Z,76.93
2022-11-15T03:21:33.547Z,80.28
2022-11-15T04:21:26.820Z,41.92
2022-11-15T04:24:08.621Z,42.38
2022-11-15T04:26:38.367Z,46.58
2022-11-15T04:29:25.252Z,41.78
2022-11-15T04:34:23.850Z,42.55
2022-11-15T04:37:11.060Z,44.85
2022-11-15T04:39:48.762Z,41.40
2022-11-15T04:42:16.290Z,44.20
2022-11-15T04:44:46.367Z,41.38
2022-11-15T04:47:17.305Z,39.58
2022-11-15T04:49:45.581Z,43.63
2022-11-15T04:52:13.073Z,40.83
2022-11-15T04:54:40.437Z,39.38
2022-11-15T04:57:10.604Z,40.17
2022-11-15T04:59:40.669Z,39.88
2022-11-15T05:02:10.241Z,44.40
2022-11-15T05:04:37.649Z,42.72
2022-11-15T05:07:08.155Z,38.22
2022-11-15T05:09:35.681Z,44.28
2022-11-15T05:12:02.979Z,41.78
2022-11-15T05:14:30.377Z,43.83
2022-11-15T05:16:57.642Z,41.33
2022-11-15T05:19:35.344Z,42.25
2022-11-15T05:24:52.379Z,41.75
2022-11-15T05:27:28.170Z,37.42
2022-11-15T05:29:56.477Z,37.22
2022-11-15T05:32:24.187Z,40.60
2022-11-15T05:34:51.618Z,40.70
2022-11-15T05:37:19.603Z,38.95
2022-11-15T05:39:48.074Z,40.40
2022-11-15T05:42:17.872Z,39.72
2022-11-15T05:44:51.912Z,42.75
2022-11-15T05:47:26.005Z,38.80
2022-11-15T05:49:54.471Z,34.78
2022-11-15T05:52:30.196Z,40.83
2022-11-15T05:55:00.352Z,39.10
2022-11-15T05:57:27.754Z,39.17
2022-11-15T05:59:56.210Z,44.58
2022-11-15T06:02:23.557Z,41.22
2022-11-15T06:04:51.109Z,44.85
2022-11-15T06:07:18.650Z,45.83
2022-11-15T06:09:45.945Z,41.22
2022-11-15T06:14:51.255Z,41.42
2022-11-15T06:17:20.901Z,40.38
2022-11-15T06:20:02.311Z,45.08
2022-11-15T06:25:05.661Z,41.40
2022-11-15T06:27:33.546Z,42.80
2022-11-15T06:30:00.806Z,41.38
2022-11-15T06:32:34.951Z,52.85
2022-11-15T06:37:49.877Z,49.97
2022-11-15T06:40:18.293Z,41.80
2022-11-15T06:42:51.165Z,47.92
2022-11-15T06:45:18.969Z,42.97
2022-11-15T06:47:48.039Z,39.72
2022-11-15T06:50:16.655Z,38.78
2022-11-15T06:52:44.415Z,48.50
2022-11-15T06:55:12.715Z,53.30
2022-11-15T06:57:53.613Z,45.78
2022-11-15T07:00:24.339Z,40.58
2022-11-15T07:03:04.335Z,48.00
2022-11-15T07:05:44.768Z,40.53
2022-11-15T07:08:15.154Z,37.45
2022-11-15T07:10:44.278Z,36.15
2022-11-15T07:13:13.485Z,40.75
2022-11-15T07:18:32.302Z,32.33
2022-11-15T07:21:04.443Z,38.65
2022-11-15T07:23:32.402Z,38.00
2022-11-15T07:26:00.921Z,45.70
2022-11-15T07:28:30.602Z,49.03
2022-11-15T07:30:58.066Z,37.97
2022-11-15T07:33:25.383Z,41.22
2022-11-15T07:35:52.587Z,38.00
2022-11-15T07:38:22.411Z,37.50
2022-11-15T07:41:02.306Z,40.08
2022-11-15T07:43:31.010Z,39.08
2022-11-15T07:45:59.590Z,42.75
2022-11-15T07:48:32.138Z,36.88
2022-11-15T07:51:14.694Z,39.83
2022-11-15T07:53:45.624Z,36.92
2022-11-15T07:56:13.299Z,40.83
2022-11-15T07:58:40.592Z,37.42
2022-11-15T08:01:10.650Z,40.58
2022-11-15T08:03:38.747Z,36.42
2022-11-15T08:06:06.327Z,41.90
2022-11-15T08:08:33.524Z,41.17
2022-11-15T08:11:01.342Z,38.10
2022-11-15T08:13:28.762Z,49.90
2022-11-15T08:16:06.433Z,46.70
2022-11-15T08:18:33.897Z,44.78
2022-11-15T08:21:02.948Z,42.60
2022-11-15T08:23:30.835Z,44.90
2022-11-15T08:26:05.694Z,45.97
2022-11-15T08:28:33.706Z,47.05
2022-11-15T08:31:00.839Z,43.22
2022-11-15T08:33:29.091Z,40.92
2022-11-15T08:36:01.142Z,38.78
2022-11-15T08:38:32.444Z,44.08
2022-11-15T08:41:07.210Z,41.33
2022-11-15T08:43:35.122Z,47.00
2022-11-15T08:46:02.463Z,47.58
2022-11-15T08:48:30.596Z,42.88
2022-11-15T08:51:01.451Z,42.65
2022-11-15T08:53:28.640Z,45.83
2022-11-15T08:55:55.817Z,43.97
2022-11-15T08:58:23.100Z,42.05
2022-11-15T09:00:50.341Z,39.03
2022-11-15T09:03:17.642Z,36.03
2022-11-15T09:05:44.792Z,40.53
2022-11-15T09:08:40.878Z,40.83
2022-11-15T09:11:05.927Z,45.00
2022-11-15T09:13:33.575Z,47.33
2022-11-15T09:16:02.210Z,46.38
2022-11-15T09:18:29.739Z,45.78
2022-11-15T09:20:59.621Z,43.55
2022-11-15T09:23:27.970Z,42.50
2022-11-15T09:26:04.296Z,44.78
2022-11-15T09:28:32.678Z,43.60
2022-11-15T09:31:02.289Z,46.15
2022-11-15T09:33:30.600Z,43.80
2022-11-15T09:36:04.211Z,45.17
2022-11-15T09:38:32.422Z,45.67
2022-11-15T09:41:50.151Z,42.50
2022-11-15T09:44:25.862Z,37.72
2022-11-15T09:46:56.837Z,43.25
2022-11-15T09:49:24.652Z,40.72
2022-11-15T09:51:55.280Z,44.10
2022-11-15T09:57:52.397Z,42.80
2022-11-15T10:00:46.401Z,44.67
2022-11-15T10:03:26.559Z,47.03
2022-11-15T10:05:58.972Z,46.95
2022-11-15T10:08:54.873Z,49.15
2022-11-15T10:11:37.756Z,51.90
2022-11-15T10:14:32.907Z,47.53
2022-11-15T10:17:03.146Z,48.15
2022-11-15T10:19:42.395Z,51.95
2022-11-15T10:22:30.774Z,52.75
2022-11-15T10:25:10.010Z,48.13
2022-11-15T10:27:37.647Z,55.75
2022-11-15T10:30:12.952Z,47.45
2022-11-15T10:32:43.304Z,53.92
2022-11-15T10:35:30.358Z,42.20
2022-11-15T10:38:12.322Z,45.05
2022-11-15T10:40:42.270Z,49.63
2022-11-15T10:43:17.202Z,46.20
2022-11-15T10:45:45.637Z,42.83
2022-11-15T10:48:15.809Z,52.17
2022-11-15T10:50:46.630Z,52.38
2022-11-15T10:53:38.358Z,49.30
2022-11-15T10:56:12.585Z,51.58
2022-11-15T10:58:44.365Z,66.28
2022-11-15T11:01:23.245Z,54.45
2022-11-15T11:04:06.457Z,57.75
2022-11-15T11:07:00.801Z,52.95
2022-11-15T11:09:43.324Z,53.47
2022-11-15T11:12:15.657Z,56.00
2022-11-15T11:14:42.804Z,54.15
2022-11-15T11:17:55.008Z,50.45
2022-11-15T11:20:46.502Z,57.58
2022-11-15T11:23:47.283Z,50.90
2022-11-15T11:26:42.206Z,50.67
2022-11-15T11:32:08.576Z,48.42
2022-11-15T11:34:59.029Z,44.90
2022-11-15T11:37:37.013Z,44.20
2022-11-15T11:40:41.040Z,42.80
2022-11-15T11:43:57.073Z,47.67
2022-11-15T11:46:50.523Z,45.47
2022-11-15T11:49:46.983Z,43.58
2022-11-15T11:52:32.131Z,47.63
2022-11-15T11:55:26.663Z,52.05
2022-11-15T11:58:16.590Z,59.83
2022-11-15T12:00:53.012Z,54.28
2022-11-15T12:03:47.261Z,50.90
2022-11-15T12:06:38.674Z,53.28
2022-11-15T12:09:27.783Z,51.90
2022-11-15T12:12:12.437Z,51.45
2022-11-15T12:17:27.787Z,59.28
2022-11-15T12:20:00.087Z,60.53
2022-11-15T12:22:44.315Z,68.28
2022-11-15T12:25:31.996Z,59.70
2022-11-15T12:28:09.323Z,55.15
2022-11-15T12:31:05.290Z,57.25
2022-11-15T12:33:45.542Z,46.42
2022-11-15T12:36:22.170Z,55.05
2022-11-15T12:39:10.218Z,52.15
2022-11-15T12:41:43.627Z,55.17
2022-11-15T12:44:40.585Z,53.23
2022-11-15T12:47:10.900Z,50.00
2022-11-15T12:49:39.965Z,43.45
2022-11-15T12:52:11.505Z,44.80
2022-11-15T12:54:42.615Z,44.00
2022-11-15T12:57:28.021Z,44.80
2022-11-15T13:00:21.520Z,47.33
2022-11-15T13:03:36.170Z,42.63
2022-11-15T13:09:01.220Z,42.90
2022-11-15T14:19:36.446Z,29.48
2022-11-15T14:39:38.800Z,37.28
2022-11-15T15:01:26.080Z,38.60
2022-11-15T15:03:57.079Z,36.63
2022-11-15T15:06:25.228Z,37.00
2022-11-15T15:08:52.743Z,34.35
2022-11-15T15:12:05.892Z,39.63
2022-11-15T15:35:24.496Z,42.40
2022-11-15T15:37:52.307Z,46.13
2022-11-15T15:40:25.810Z,43.40
2022-11-15T15:42:53.328Z,45.83
2022-11-15T15:45:21.056Z,39.22
2022-11-15T15:47:50.348Z,44.88
2022-11-15T15:50:36.822Z,48.45
2022-11-15T15:53:05.867Z,42.88
2022-11-15T15:55:33.724Z,48.75
2022-11-15T15:58:00.954Z,50.67
2022-11-15T16:00:28.238Z,48.80
2022-11-15T16:02:55.584Z,46.78
2022-11-15T16:05:24.042Z,49.00
2022-11-15T16:07:52.016Z,47.30
2022-11-15T16:10:29.821Z,46.15
2022-11-15T16:12:58.695Z,45.42
2022-11-15T16:15:31.341Z,42.58
2022-11-15T16:18:01.054Z,53.97
2022-11-15T16:20:36.743Z,55.42
2022-11-15T16:23:16.124Z,56.65
2022-11-15T16:25:58.296Z,67.45
2022-11-15T16:28:38.534Z,59.50
2022-11-15T16:31:22.719Z,54.85
2022-11-15T16:33:53.936Z,49.47
2022-11-15T16:36:30.815Z,51.08
2022-11-15T16:42:02.087Z,49.88
2022-11-15T16:44:40.298Z,52.97
2022-11-15T19:22:14.473Z,35.38
2022-11-15T19:27:17.920Z,33.42
2022-11-15T19:30:19.338Z,28.42
2022-11-15T19:32:59.911Z,29.27
2022-11-15T19:35:27.682Z,31.02
2022-11-15T19:37:55.310Z,30.77
2022-11-15T19:40:24.237Z,32.88
2022-11-15T19:42:53.660Z,32.25
2022-11-15T19:45:26.550Z,34.80
2022-11-15T19:47:53.960Z,32.15
2022-11-15T19:50:21.232Z,33.45
2022-11-15T19:52:48.421Z,34.45
2022-11-15T20:01:24.914Z,40.17
2022-11-15T20:03:55.402Z,37.08
2022-11-15T20:12:15.489Z,37.95
2022-11-15T20:14:47.319Z,34.35
2022-11-15T20:17:15.398Z,33.67
2022-11-15T20:19:43.582Z,34.58
2022-11-15T21:02:09.220Z,40.60
2022-11-15T21:33:36.892Z,36.92
2022-11-15T21:36:10.168Z,34.13
2022-11-15T21:38:38.370Z,40.17
2022-11-15T21:41:06.552Z,39.67
2022-11-15T21:43:35.025Z,42.38
2022-11-15T21:46:08.242Z,41.10
2022-11-15T21:49:32.113Z,39.15
2022-11-15T21:52:00.435Z,39.40
2022-11-15T21:54:27.872Z,39.50
2022-11-15T22:00:00.772Z,46.67
2022-11-15T22:02:27.904Z,40.67
2022-11-15T22:04:55.008Z,44.22
2022-11-15T22:07:22.278Z,41.88
2022-11-15T22:09:49.516Z,38.85
2022-11-15T22:12:16.703Z,38.17
2022-11-15T22:14:43.885Z,38.80
2022-11-15T22:17:11.477Z,41.55
2022-11-15T22:19:51.930Z,35.53
2022-11-15T22:22:19.889Z,34.78
2022-11-15T22:24:47.088Z,39.50
2022-11-15T22:27:14.273Z,38.83
2022-11-15T22:29:41.787Z,38.03
2022-11-15T22:32:08.934Z,36.63
2022-11-15T22:34:36.195Z,39.17
2022-11-15T22:37:20.057Z,38.78
2022-11-15T22:39:48.655Z,35.88
2022-11-15T22:42:19.433Z,39.30
2022-11-15T22:44:50.665Z,38.15
2022-11-15T22:47:19.247Z,42.20
2022-11-15T22:49:46.529Z,38.33
2022-11-15T22:52:14.344Z,35.78
2022-11-15T22:54:41.633Z,37.78
2022-11-15T22:57:09.008Z,36.40
2022-11-15T22:59:37.740Z,34.47
2022-11-15T23:02:05.456Z,38.10
2022-11-15T23:04:32.749Z,32.60
2022-11-15T23:06:59.994Z,34.58
2022-11-15T23:09:27.371Z,36.97
2022-11-15T23:12:13.204Z,38.85
2022-11-15T23:14:40.385Z,39.88
2022-11-15T23:17:07.973Z,39.33
2022-11-15T23:19:35.353Z,41.80
2022-11-15T23:22:20.990Z,40.30
2022-11-15T23:24:48.568Z,39.42
2022-11-15T23:27:20.044Z,39.10
2022-11-15T23:30:06.961Z,41.67
2022-11-15T23:32:52.617Z,40.50
2022-11-15T23:35:29.998Z,43.28
2022-11-15T23:37:57.875Z,45.33
2022-11-15T23:40:25.315Z,48.78
2022-11-15T23:42:52.723Z,40.38
2022-11-15T23:45:20.400Z,46.38
2022-11-15T23:47:47.601Z,40.63
2022-11-15T23:50:14.944Z,42.45
2022-11-15T23:52:42.187Z,43.70
2022-11-15T23:55:10.099Z,42.00
2022-11-15T23:57:37.627Z,43.50
